sensor_id;sensor_type;location;lat;lon;timestamp;pressure;altitude;pressure_sealevel;temperature;humidity
64827;BME280;51265;53.972;12.286;2024-02-04T00:01:55;100636.38;;;4.31;100.00
64827;BME280;51265;53.972;12.286;2024-02-04T00:04:21;100629.81;;;4.27;100.00
64827;BME280;51265;53.972;12.286;2024-02-04T00:06:49;100628.72;;;4.28;100.00
64827;BME280;51265;53.972;12.286;2024-02-04T00:09:15;100633.84;;;4.24;100.00
64827;BME280;51265;53.972;12.286;2024-02-04T00:11:41;100631.94;;;4.25;100.00
64827;BME280;51265;53.972;12.286;2024-02-04T00:14:07;100629.22;;;4.25;100.00
64827;BME280;51265;53.972;12.286;2024-02-04T00:16:34;100629.81;;;4.27;100.00
64827;BME280;51265;53.972;12.286;2024-02-04T00:19:01;100633.72;;;4.36;100.00
64827;BME280;51265;53.972;12.286;2024-02-04T00:21:27;100611.38;;;4.39;100.00
64827;BME280;51265;53.972;12.286;2024-02-04T00:23:53;100610.25;;;4.35;100.00
64827;BME280;51265;53.972;12.286;2024-02-04T00:26:19;100600.88;;;4.26;100.00
64827;BME280;51265;53.972;12.286;2024-02-04T00:28:45;100610.13;;;4.25;100.00
64827;BME280;51265;53.972;12.286;2024-02-04T00:31:11;100598.41;;;4.24;100.00
64827;BME280;51265;53.972;12.286;2024-02-04T00:33:38;100604.69;;;4.25;100.00
64827;BME280;51265;53.972;12.286;2024-02-04T00:36:04;100611.84;;;4.31;100.00
64827;BME280;51265;53.972;12.286;2024-02-04T00:38:30;100628.25;;;4.36;100.00
64827;BME280;51265;53.972;12.286;2024-02-04T00:40:57;100622.88;;;4.46;100.00
64827;BME280;51265;53.972;12.286;2024-02-04T00:43:23;100623.81;;;4.57;100.00
64827;BME280;51265;53.972;12.286;2024-02-04T00:45:49;100629.00;;;4.59;100.00
64827;BME280;51265;53.972;12.286;2024-02-04T00:48:15;100616.75;;;4.61;100.00
64827;BME280;51265;53.972;12.286;2024-02-04T00:50:42;100632.84;;;4.63;100.00
64827;BME280;51265;53.972;12.286;2024-02-04T00:53:08;100619.81;;;4.65;100.00
64827;BME280;51265;53.972;12.286;2024-02-04T00:55:35;100595.19;;;4.60;100.00
64827;BME280;51265;53.972;12.286;2024-02-04T00:58:01;100596.28;;;4.59;100.00
64827;BME280;51265;53.972;12.286;2024-02-04T01:00:28;100586.97;;;4.55;100.00
64827;BME280;51265;53.972;12.286;2024-02-04T01:02:54;100604.75;;;4.62;100.00
64827;BME280;51265;53.972;12.286;2024-02-04T01:05:20;100608.22;;;4.53;100.00
64827;BME280;51265;53.972;12.286;2024-02-04T01:07:47;100614.34;;;4.65;100.00
64827;BME280;51265;53.972;12.286;2024-02-04T01:10:13;100624.00;;;4.78;100.00
64827;BME280;51265;53.972;12.286;2024-02-04T01:12:39;100612.78;;;4.74;100.00
64827;BME280;51265;53.972;12.286;2024-02-04T01:15:06;100627.03;;;4.81;100.00
64827;BME280;51265;53.972;12.286;2024-02-04T01:17:32;100616.16;;;4.86;100.00
64827;BME280;51265;53.972;12.286;2024-02-04T01:19:59;100612.34;;;4.87;100.00
64827;BME280;51265;53.972;12.286;2024-02-04T01:22:26;100610.19;;;4.89;100.00
64827;BME280;51265;53.972;12.286;2024-02-04T01:24:56;100611.00;;;4.90;100.00
64827;BME280;51265;53.972;12.286;2024-02-04T01:27:22;100598.72;;;4.92;100.00
64827;BME280;51265;53.972;12.286;2024-02-04T01:29:48;100598.16;;;4.90;100.00
64827;BME280;51265;53.972;12.286;2024-02-04T01:32:14;100603.44;;;5.02;100.00
64827;BME280;51265;53.972;12.286;2024-02-04T01:34:40;100590.03;;;5.00;100.00
64827;BME280;51265;53.972;12.286;2024-02-04T01:37:06;100579.66;;;4.97;100.00
64827;BME280;51265;53.972;12.286;2024-02-04T01:39:32;100593.25;;;4.92;100.00
64827;BME280;51265;53.972;12.286;2024-02-04T01:41:59;100578.78;;;4.92;100.00
64827;BME280;51265;53.972;12.286;2024-02-04T01:44:25;100572.19;;;4.83;100.00
64827;BME280;51265;53.972;12.286;2024-02-04T01:46:51;100577.94;;;4.86;100.00
64827;BME280;51265;53.972;12.286;2024-02-04T01:49:18;100585.06;;;4.92;100.00
64827;BME280;51265;53.972;12.286;2024-02-04T01:51:44;100596.56;;;4.94;100.00
64827;BME280;51265;53.972;12.286;2024-02-04T01:54:11;100593.88;;;4.99;100.00
64827;BME280;51265;53.972;12.286;2024-02-04T01:56:37;100579.09;;;4.95;100.00
64827;BME280;51265;53.972;12.286;2024-02-04T01:59:04;100564.13;;;4.98;100.00
64827;BME280;51265;53.972;12.286;2024-02-04T02:01:31;100588.41;;;4.99;100.00
64827;BME280;51265;53.972;12.286;2024-02-04T02:03:57;100568.16;;;4.90;100.00
64827;BME280;51265;53.972;12.286;2024-02-04T02:06:24;100564.81;;;4.83;100.00
64827;BME280;51265;53.972;12.286;2024-02-04T02:08:51;100566.44;;;4.79;100.00
64827;BME280;51265;53.972;12.286;2024-02-04T02:11:21;100568.59;;;4.77;100.00
64827;BME280;51265;53.972;12.286;2024-02-04T02:13:57;100554.91;;;4.72;100.00
64827;BME280;51265;53.972;12.286;2024-02-04T02:16:30;100550.56;;;4.76;100.00
64827;BME280;51265;53.972;12.286;2024-02-04T02:19:18;100534.47;;;4.74;100.00
64827;BME280;51265;53.972;12.286;2024-02-04T02:22:25;100545.56;;;4.63;100.00
64827;BME280;51265;53.972;12.286;2024-02-04T02:24:54;100538.47;;;4.62;100.00
64827;BME280;51265;53.972;12.286;2024-02-04T02:27:28;100536.84;;;4.61;100.00
64827;BME280;51265;53.972;12.286;2024-02-04T02:29:54;100552.38;;;4.60;100.00
64827;BME280;51265;53.972;12.286;2024-02-04T02:32:21;100542.25;;;4.56;100.00
64827;BME280;51265;53.972;12.286;2024-02-04T02:34:47;100538.41;;;4.52;100.00
64827;BME280;51265;53.972;12.286;2024-02-04T02:40:05;100537.34;;;4.58;100.00
64827;BME280;51265;53.972;12.286;2024-02-04T02:42:34;100531.59;;;4.54;100.00
64827;BME280;51265;53.972;12.286;2024-02-04T02:45:02;100537.91;;;4.60;100.00
64827;BME280;51265;53.972;12.286;2024-02-04T02:47:29;100543.13;;;4.66;100.00
64827;BME280;51265;53.972;12.286;2024-02-04T02:49:55;100539.94;;;4.74;100.00
64827;BME280;51265;53.972;12.286;2024-02-04T02:52:21;100531.53;;;4.81;100.00
64827;BME280;51265;53.972;12.286;2024-02-04T02:54:48;100538.38;;;4.89;100.00
64827;BME280;51265;53.972;12.286;2024-02-04T02:57:14;100528.81;;;4.86;100.00
64827;BME280;51265;53.972;12.286;2024-02-04T02:59:40;100541.94;;;4.89;100.00
64827;BME280;51265;53.972;12.286;2024-02-04T03:02:06;100525.59;;;4.94;100.00
64827;BME280;51265;53.972;12.286;2024-02-04T03:04:32;100521.75;;;4.90;100.00
64827;BME280;51265;53.972;12.286;2024-02-04T03:06:58;100526.16;;;4.96;100.00
64827;BME280;51265;53.972;12.286;2024-02-04T03:09:25;100518.56;;;5.04;100.00
64827;BME280;51265;53.972;12.286;2024-02-04T03:11:51;100508.97;;;5.01;100.00
64827;BME280;51265;53.972;12.286;2024-02-04T03:14:17;100510.91;;;5.06;100.00
64827;BME280;51265;53.972;12.286;2024-02-04T03:16:44;100513.41;;;5.12;100.00
64827;BME280;51265;53.972;12.286;2024-02-04T03:19:11;100511.19;;;5.09;100.00
64827;BME280;51265;53.972;12.286;2024-02-04T03:21:37;100504.91;;;5.04;100.00
64827;BME280;51265;53.972;12.286;2024-02-04T03:24:04;100494.00;;;5.09;100.00
64827;BME280;51265;53.972;12.286;2024-02-04T03:26:30;100496.50;;;5.10;100.00
64827;BME280;51265;53.972;12.286;2024-02-04T03:28:56;100483.09;;;5.09;100.00
64827;BME280;51265;53.972;12.286;2024-02-04T03:31:23;100480.38;;;5.14;100.00
64827;BME280;51265;53.972;12.286;2024-02-04T03:33:50;100482.34;;;5.18;100.00
64827;BME280;51265;53.972;12.286;2024-02-04T03:36:20;100456.31;;;5.06;100.00
64827;BME280;51265;53.972;12.286;2024-02-04T03:38:48;100460.19;;;5.15;100.00
64827;BME280;51265;53.972;12.286;2024-02-04T03:41:15;100456.09;;;5.17;100.00
64827;BME280;51265;53.972;12.286;2024-02-04T03:43:41;100443.25;;;5.18;100.00
64827;BME280;51265;53.972;12.286;2024-02-04T03:46:07;100454.75;;;5.15;100.00
64827;BME280;51265;53.972;12.286;2024-02-04T03:48:33;100433.44;;;5.22;100.00
64827;BME280;51265;53.972;12.286;2024-02-04T03:51:02;100427.47;;;5.25;100.00
64827;BME280;51265;53.972;12.286;2024-02-04T03:53:28;100432.63;;;5.21;100.00
64827;BME280;51265;53.972;12.286;2024-02-04T03:55:55;100435.63;;;5.20;100.00
64827;BME280;51265;53.972;12.286;2024-02-04T03:58:22;100431.81;;;5.16;100.00
64827;BME280;51265;53.972;12.286;2024-02-04T04:00:55;100423.09;;;5.19;100.00
64827;BME280;51265;53.972;12.286;2024-02-04T04:03:22;100435.66;;;5.30;100.00
64827;BME280;51265;53.972;12.286;2024-02-04T04:05:49;100436.75;;;5.34;100.00
64827;BME280;51265;53.972;12.286;2024-02-04T04:08:16;100437.03;;;5.28;100.00
64827;BME280;51265;53.972;12.286;2024-02-04T04:10:44;100445.22;;;5.22;100.00
64827;BME280;51265;53.972;12.286;2024-02-04T04:13:12;100438.38;;;5.25;100.00
64827;BME280;51265;53.972;12.286;2024-02-04T04:15:38;100441.69;;;5.27;100.00
64827;BME280;51265;53.972;12.286;2024-02-04T04:18:05;100432.94;;;5.30;100.00
64827;BME280;51265;53.972;12.286;2024-02-04T04:20:31;100446.03;;;5.28;100.00
64827;BME280;51265;53.972;12.286;2024-02-04T04:22:57;100446.63;;;5.35;100.00
64827;BME280;51265;53.972;12.286;2024-02-04T04:25:23;100431.59;;;5.38;100.00
64827;BME280;51265;53.972;12.286;2024-02-04T04:27:50;100429.72;;;5.43;100.00
64827;BME280;51265;53.972;12.286;2024-02-04T04:30:16;100420.97;;;5.46;100.00
64827;BME280;51265;53.972;12.286;2024-02-04T04:32:42;100409.75;;;5.38;100.00
64827;BME280;51265;53.972;12.286;2024-02-04T04:35:08;100412.19;;;5.29;100.00
64827;BME280;51265;53.972;12.286;2024-02-04T04:37:35;100418.50;;;5.40;100.00
64827;BME280;51265;53.972;12.286;2024-02-04T04:40:01;100409.50;;;5.44;100.00
64827;BME280;51265;53.972;12.286;2024-02-04T04:42:27;100405.38;;;5.42;100.00
64827;BME280;51265;53.972;12.286;2024-02-04T04:44:56;100396.38;;;5.52;100.00
64827;BME280;51265;53.972;12.286;2024-02-04T04:47:22;100385.72;;;5.50;100.00
64827;BME280;51265;53.972;12.286;2024-02-04T04:49:48;100381.63;;;5.42;100.00
64827;BME280;51265;53.972;12.286;2024-02-04T04:52:14;100372.34;;;5.48;100.00
64827;BME280;51265;53.972;12.286;2024-02-04T04:54:42;100373.41;;;5.42;100.00
64827;BME280;51265;53.972;12.286;2024-02-04T04:57:09;100348.59;;;5.44;100.00
64827;BME280;51265;53.972;12.286;2024-02-04T04:59:35;100349.41;;;5.44;100.00
64827;BME280;51265;53.972;12.286;2024-02-04T05:02:02;100354.31;;;5.37;100.00
64827;BME280;51265;53.972;12.286;2024-02-04T05:04:28;100339.53;;;5.33;100.00
64827;BME280;51265;53.972;12.286;2024-02-04T05:06:54;100350.47;;;5.28;100.00
64827;BME280;51265;53.972;12.286;2024-02-04T05:09:20;100351.56;;;5.32;100.00
64827;BME280;51265;53.972;12.286;2024-02-04T05:11:46;100359.75;;;5.32;100.00
64827;BME280;51265;53.972;12.286;2024-02-04T05:14:13;100352.91;;;5.30;100.00
64827;BME280;51265;53.972;12.286;2024-02-04T05:16:39;100352.66;;;5.36;100.00
64827;BME280;51265;53.972;12.286;2024-02-04T05:19:05;100378.34;;;5.40;100.00
64827;BME280;51265;53.972;12.286;2024-02-04T05:21:31;100371.25;;;5.44;100.00
64827;BME280;51265;53.972;12.286;2024-02-04T05:23:58;100364.16;;;5.48;100.00
64827;BME280;51265;53.972;12.286;2024-02-04T05:26:24;100355.97;;;5.48;100.00
64827;BME280;51265;53.972;12.286;2024-02-04T05:28:50;100352.66;;;5.52;100.00
64827;BME280;51265;53.972;12.286;2024-02-04T05:31:16;100358.16;;;5.57;100.00
64827;BME280;51265;53.972;12.286;2024-02-04T05:33:42;100359.22;;;5.50;100.00
64827;BME280;51265;53.972;12.286;2024-02-04T05:36:08;100354.34;;;5.58;100.00
64827;BME280;51265;53.972;12.286;2024-02-04T05:38:35;100358.13;;;5.52;100.00
64827;BME280;51265;53.972;12.286;2024-02-04T05:41:01;100339.56;;;5.59;100.00
64827;BME280;51265;53.972;12.286;2024-02-04T05:43:27;100352.66;;;5.52;100.00
64827;BME280;51265;53.972;12.286;2024-02-04T05:45:53;100345.03;;;5.59;100.00
64827;BME280;51265;53.972;12.286;2024-02-04T05:48:20;100344.47;;;5.46;100.00
64827;BME280;51265;53.972;12.286;2024-02-04T05:50:47;100343.13;;;5.54;100.00
64827;BME280;51265;53.972;12.286;2024-02-04T05:53:13;100339.00;;;5.52;100.00
64827;BME280;51265;53.972;12.286;2024-02-04T05:55:39;100334.94;;;5.54;100.00
64827;BME280;51265;53.972;12.286;2024-02-04T05:58:05;100323.19;;;5.48;100.00
64827;BME280;51265;53.972;12.286;2024-02-04T06:00:31;100325.34;;;5.52;100.00
64827;BME280;51265;53.972;12.286;2024-02-04T06:02:58;100324.28;;;5.53;100.00
64827;BME280;51265;53.972;12.286;2024-02-04T06:05:24;100316.63;;;5.55;100.00
64827;BME280;51265;53.972;12.286;2024-02-04T06:07:50;100306.78;;;5.59;100.00
64827;BME280;51265;53.972;12.286;2024-02-04T06:10:16;100300.78;;;5.62;100.00
64827;BME280;51265;53.972;12.286;2024-02-04T06:12:44;100306.25;;;5.57;100.00
64827;BME280;51265;53.972;12.286;2024-02-04T06:15:14;100288.50;;;5.54;100.00
64827;BME280;51265;53.972;12.286;2024-02-04T06:17:41;100301.88;;;5.56;100.00
64827;BME280;51265;53.972;12.286;2024-02-04T06:20:08;100287.13;;;5.57;100.00
64827;BME280;51265;53.972;12.286;2024-02-04T06:22:35;100289.03;;;5.51;100.00
64827;BME280;51265;53.972;12.286;2024-02-04T06:25:02;100293.13;;;5.54;100.00
64827;BME280;51265;53.972;12.286;2024-02-04T06:27:30;100294.78;;;5.49;100.00
64827;BME280;51265;53.972;12.286;2024-02-04T06:29:56;100284.94;;;5.59;100.00
64827;BME280;51265;53.972;12.286;2024-02-04T06:32:23;100290.94;;;5.56;100.00
64827;BME280;51265;53.972;12.286;2024-02-04T06:34:51;100277.56;;;5.54;100.00
64827;BME280;51265;53.972;12.286;2024-02-04T06:37:17;100282.75;;;5.50;100.00
64827;BME280;51265;53.972;12.286;2024-02-04T06:39:43;100294.78;;;5.49;100.00
64827;BME280;51265;53.972;12.286;2024-02-04T06:42:09;100295.06;;;5.53;100.00
64827;BME280;51265;53.972;12.286;2024-02-04T06:44:35;100306.22;;;5.52;100.00
64827;BME280;51265;53.972;12.286;2024-02-04T06:47:02;100299.13;;;5.56;100.00
64827;BME280;51265;53.972;12.286;2024-02-04T06:49:28;100301.34;;;5.69;100.00
64827;BME280;51265;53.972;12.286;2024-02-04T06:51:54;100286.03;;;5.58;100.00
64827;BME280;51265;53.972;12.286;2024-02-04T06:54:23;100286.56;;;5.49;100.00
64827;BME280;51265;53.972;12.286;2024-02-04T06:56:51;100294.22;;;5.58;100.00
64827;BME280;51265;53.972;12.286;2024-02-04T06:59:18;100294.22;;;5.63;100.00
64827;BME280;51265;53.972;12.286;2024-02-04T07:01:45;100280.28;;;5.59;100.00
64827;BME280;51265;53.972;12.286;2024-02-04T07:04:11;100292.59;;;5.57;100.00
64827;BME280;51265;53.972;12.286;2024-02-04T07:06:37;100288.78;;;5.53;100.00
64827;BME280;51265;53.972;12.286;2024-02-04T07:09:03;100291.50;;;5.53;100.00
64827;BME280;51265;53.972;12.286;2024-02-04T07:11:29;100302.97;;;5.49;100.00
64827;BME280;51265;53.972;12.286;2024-02-04T07:13:56;100296.41;;;5.50;100.00
64827;BME280;51265;53.972;12.286;2024-02-04T07:16:26;100288.19;;;5.56;100.00
64827;BME280;51265;53.972;12.286;2024-02-04T07:18:54;100286.03;;;5.47;100.00
64827;BME280;51265;53.972;12.286;2024-02-04T07:21:20;100296.97;;;5.53;100.00
64827;BME280;51265;53.972;12.286;2024-02-04T07:23:46;100290.13;;;5.55;100.00
64827;BME280;51265;53.972;12.286;2024-02-04T07:26:12;100284.66;;;5.50;100.00
64827;BME280;51265;53.972;12.286;2024-02-04T07:28:39;100288.75;;;5.58;100.00
64827;BME280;51265;53.972;12.286;2024-02-04T07:31:05;100297.50;;;5.60;100.00
64827;BME280;51265;53.972;12.286;2024-02-04T07:33:31;100284.94;;;5.59;100.00
64827;BME280;51265;53.972;12.286;2024-02-04T07:35:57;100295.59;;;5.65;100.00
64827;BME280;51265;53.972;12.286;2024-02-04T07:38:23;100289.31;;;5.65;100.00
64827;BME280;51265;53.972;12.286;2024-02-04T07:40:50;100274.00;;;5.59;100.00
64827;BME280;51265;53.972;12.286;2024-02-04T07:43:16;100263.09;;;5.69;100.00
64827;BME280;51265;53.972;12.286;2024-02-04T07:45:43;100252.16;;;5.59;100.00
64827;BME280;51265;53.972;12.286;2024-02-04T07:48:09;100254.59;;;5.75;100.00
64827;BME280;51265;53.972;12.286;2024-02-04T07:50:36;100232.19;;;5.63;100.00
64827;BME280;51265;53.972;12.286;2024-02-04T07:53:03;100239.00;;;5.76;100.00
64827;BME280;51265;53.972;12.286;2024-02-04T07:55:29;100233.56;;;5.71;100.00
64827;BME280;51265;53.972;12.286;2024-02-04T07:57:56;100236.84;;;5.73;100.00
64827;BME280;51265;53.972;12.286;2024-02-04T08:00:22;100225.88;;;5.83;100.00
64827;BME280;51265;53.972;12.286;2024-02-04T08:02:48;100227.00;;;5.77;100.00
64827;BME280;51265;53.972;12.286;2024-02-04T08:05:14;100223.69;;;5.80;100.00
64827;BME280;51265;53.972;12.286;2024-02-04T08:07:41;100232.97;;;5.84;100.00
64827;BME280;51265;53.972;12.286;2024-02-04T08:10:07;100229.72;;;5.92;100.00
64827;BME280;51265;53.972;12.286;2024-02-04T08:12:34;100212.25;;;5.78;100.00
64827;BME280;51265;53.972;12.286;2024-02-04T08:15:00;100222.59;;;5.96;100.00
64827;BME280;51265;53.972;12.286;2024-02-04T08:17:27;100202.09;;;5.84;100.00
64827;BME280;51265;53.972;12.286;2024-02-04T08:19:57;100202.94;;;5.79;100.00
64827;BME280;51265;53.972;12.286;2024-02-04T08:22:23;100202.38;;;5.82;100.00
64827;BME280;51265;53.972;12.286;2024-02-04T08:24:49;100213.31;;;5.87;100.00
64827;BME280;51265;53.972;12.286;2024-02-04T08:27:17;100220.44;;;5.78;100.00
64827;BME280;51265;53.972;12.286;2024-02-04T08:29:44;100213.31;;;5.82;100.00
64827;BME280;51265;53.972;12.286;2024-02-04T08:32:10;100225.34;;;5.76;100.00
64827;BME280;51265;53.972;12.286;2024-02-04T08:34:37;100223.13;;;5.93;100.00
64827;BME280;51265;53.972;12.286;2024-02-04T08:37:03;100206.19;;;5.91;100.00
64827;BME280;51265;53.972;12.286;2024-02-04T08:39:29;100210.84;;;5.91;100.00
64827;BME280;51265;53.972;12.286;2024-02-04T08:41:56;100207.28;;;5.80;100.00
64827;BME280;51265;53.972;12.286;2024-02-04T08:44:23;100210.03;;;5.90;100.00
64827;BME280;51265;53.972;12.286;2024-02-04T08:46:49;100210.03;;;5.95;100.00
64827;BME280;51265;53.972;12.286;2024-02-04T08:49:15;100218.47;;;5.89;100.00
64827;BME280;51265;53.972;12.286;2024-02-04T08:51:41;100218.78;;;5.92;100.00
64827;BME280;51265;53.972;12.286;2024-02-04T08:54:07;100222.06;;;5.94;100.00
64827;BME280;51265;53.972;12.286;2024-02-04T08:56:34;100215.47;;;6.01;100.00
64827;BME280;51265;53.972;12.286;2024-02-04T08:59:00;100205.38;;;6.06;100.00
64827;BME280;51265;53.972;12.286;2024-02-04T09:01:27;100201.22;;;6.09;100.00
64827;BME280;51265;53.972;12.286;2024-02-04T09:03:54;100203.19;;;6.03;100.00
64827;BME280;51265;53.972;12.286;2024-02-04T09:06:20;100201.78;;;6.06;100.00
64827;BME280;51265;53.972;12.286;2024-02-04T09:08:46;100187.88;;;5.87;100.00
64827;BME280;51265;53.972;12.286;2024-02-04T09:11:13;100197.44;;;5.99;100.00
64827;BME280;51265;53.972;12.286;2024-02-04T09:13:45;100189.22;;;5.89;100.00
64827;BME280;51265;53.972;12.286;2024-02-04T09:16:11;100185.16;;;5.92;100.00
64827;BME280;51265;53.972;12.286;2024-02-04T09:18:37;100179.97;;;5.85;100.00
64827;BME280;51265;53.972;12.286;2024-02-04T09:21:04;100182.41;;;5.97;100.00
64827;BME280;51265;53.972;12.286;2024-02-04T09:23:30;100183.22;;;5.97;100.00
64827;BME280;51265;53.972;12.286;2024-02-04T09:25:56;100170.66;;;5.96;100.00
64827;BME280;51265;53.972;12.286;2024-02-04T09:28:22;100157.00;;;5.96;100.00
64827;BME280;51265;53.972;12.286;2024-02-04T09:30:49;100157.50;;;6.09;100.00
64827;BME280;51265;53.972;12.286;2024-02-04T09:33:15;100156.38;;;6.10;100.00
64827;BME280;51265;53.972;12.286;2024-02-04T09:35:41;100168.13;;;6.10;100.00
64827;BME280;51265;53.972;12.286;2024-02-04T09:38:07;100149.56;;;6.07;100.00
64827;BME280;51265;53.972;12.286;2024-02-04T09:40:34;100154.72;;;6.14;100.00
64827;BME280;51265;53.972;12.286;2024-02-04T09:43:00;100156.41;;;6.05;100.00
64827;BME280;51265;53.972;12.286;2024-02-04T09:45:27;100166.72;;;6.18;100.00
64827;BME280;51265;53.972;12.286;2024-02-04T09:47:54;100156.31;;;6.25;100.00
64827;BME280;51265;53.972;12.286;2024-02-04T09:50:20;100140.47;;;6.22;100.00
64827;BME280;51265;53.972;12.286;2024-02-04T09:52:50;100142.69;;;6.20;100.00
64827;BME280;51265;53.972;12.286;2024-02-04T09:55:20;100155.25;;;6.21;100.00
64827;BME280;51265;53.972;12.286;2024-02-04T09:57:47;100139.91;;;6.25;100.00
64827;BME280;51265;53.972;12.286;2024-02-04T10:00:14;100149.69;;;6.36;100.00
64827;BME280;51265;53.972;12.286;2024-02-04T10:02:41;100150.84;;;6.25;100.00
64827;BME280;51265;53.972;12.286;2024-02-04T10:05:07;100146.44;;;6.29;100.00
64827;BME280;51265;53.972;12.286;2024-02-04T10:07:37;100151.97;;;6.24;100.00
64827;BME280;51265;53.972;12.286;2024-02-04T10:10:04;100143.78;;;6.19;100.00
64827;BME280;51265;53.972;12.286;2024-02-04T10:12:31;100153.91;;;6.13;100.00
64827;BME280;51265;53.972;12.286;2024-02-04T10:14:58;100159.34;;;6.23;100.00
64827;BME280;51265;53.972;12.286;2024-02-04T10:17:25;100155.50;;;6.24;100.00
64827;BME280;51265;53.972;12.286;2024-02-04T10:19:51;100148.19;;;6.10;100.00
64827;BME280;51265;53.972;12.286;2024-02-04T10:22:17;100169.75;;;6.16;100.00
64827;BME280;51265;53.972;12.286;2024-02-04T10:24:44;100165.66;;;6.14;100.00
64827;BME280;51265;53.972;12.286;2024-02-04T10:27:15;100167.31;;;6.15;100.00
64827;BME280;51265;53.972;12.286;2024-02-04T10:29:41;100165.09;;;6.17;100.00
64827;BME280;51265;53.972;12.286;2024-02-04T10:32:07;100164.84;;;6.13;100.00
64827;BME280;51265;53.972;12.286;2024-02-04T10:34:37;100159.69;;;6.07;100.00
64827;BME280;51265;53.972;12.286;2024-02-04T10:37:05;100159.16;;;6.05;100.00
64827;BME280;51265;53.972;12.286;2024-02-04T10:39:31;100164.88;;;6.08;100.00
64827;BME280;51265;53.972;12.286;2024-02-04T10:42:02;100157.81;;;6.02;100.00
64827;BME280;51265;53.972;12.286;2024-02-04T10:44:35;100159.13;;;6.10;100.00
64827;BME280;51265;53.972;12.286;2024-02-04T10:47:05;100156.41;;;6.05;100.00
64827;BME280;51265;53.972;12.286;2024-02-04T10:49:33;100165.72;;;6.04;100.00
64827;BME280;51265;53.972;12.286;2024-02-04T10:52:01;100161.88;;;6.05;100.00
64827;BME280;51265;53.972;12.286;2024-02-04T10:54:30;100168.97;;;6.06;100.00
64827;BME280;51265;53.972;12.286;2024-02-04T10:57:02;100150.91;;;6.15;100.00
64827;BME280;51265;53.972;12.286;2024-02-04T10:59:31;100154.16;;;6.17;100.00
64827;BME280;51265;53.972;12.286;2024-02-04T11:01:59;100152.84;;;6.09;100.00
64827;BME280;51265;53.972;12.286;2024-02-04T11:04:25;100135.09;;;6.07;100.00
64827;BME280;51265;53.972;12.286;2024-02-04T11:06:53;100143.28;;;6.07;100.00
64827;BME280;51265;53.972;12.286;2024-02-04T11:09:20;100147.63;;;6.13;100.00
64827;BME280;51265;53.972;12.286;2024-02-04T11:11:47;100136.16;;;6.06;100.00
64827;BME280;51265;53.972;12.286;2024-02-04T11:14:16;100140.81;;;6.05;100.00
64827;BME280;51265;53.972;12.286;2024-02-04T11:22:40;100122.28;;;6.02;100.00
64827;BME280;51265;53.972;12.286;2024-02-04T11:25:41;100138.94;;;6.01;100.00
64827;BME280;51265;53.972;12.286;2024-02-04T11:28:11;100160.81;;;6.01;100.00
64827;BME280;51265;53.972;12.286;2024-02-04T11:30:37;100158.06;;;6.01;100.00
64827;BME280;51265;53.972;12.286;2024-02-04T11:33:04;100138.38;;;6.04;100.00
64827;BME280;51265;53.972;12.286;2024-02-04T11:35:34;100144.38;;;6.11;100.00
64827;BME280;51265;53.972;12.286;2024-02-04T11:38:01;100136.72;;;6.08;100.00
64827;BME280;51265;53.972;12.286;2024-02-04T11:40:37;100144.38;;;6.11;100.00
64827;BME280;51265;53.972;12.286;2024-02-04T11:43:07;100137.28;;;6.05;100.00
64827;BME280;51265;53.972;12.286;2024-02-04T11:45:40;100135.09;;;6.02;100.00
64827;BME280;51265;53.972;12.286;2024-02-04T11:48:08;100137.00;;;6.06;100.00
64827;BME280;51265;53.972;12.286;2024-02-04T11:50:34;100147.94;;;6.01;100.00
64827;BME280;51265;53.972;12.286;2024-02-04T11:53:12;100142.72;;;6.10;100.00
64827;BME280;51265;53.972;12.286;2024-02-04T11:55:40;100145.72;;;6.08;100.00
64827;BME280;51265;53.972;12.286;2024-02-04T11:58:07;100143.25;;;6.12;100.00
64827;BME280;51265;53.972;12.286;2024-02-04T12:00:33;100143.25;;;6.12;100.00
64827;BME280;51265;53.972;12.286;2024-02-04T12:03:04;100137.78;;;6.12;100.00
64827;BME280;51265;53.972;12.286;2024-02-04T12:05:32;100156.41;;;6.05;100.00
64827;BME280;51265;53.972;12.286;2024-02-04T12:08:03;100138.91;;;6.11;100.00
64827;BME280;51265;53.972;12.286;2024-02-04T12:10:31;100145.19;;;6.11;100.00
64827;BME280;51265;53.972;12.286;2024-02-04T12:13:05;100149.84;;;6.11;100.00
64827;BME280;51265;53.972;12.286;2024-02-04T12:15:34;100129.53;;;6.22;100.00
64827;BME280;51265;53.972;12.286;2024-02-04T12:18:08;100135.25;;;6.26;100.00
64827;BME280;51265;53.972;12.286;2024-02-04T12:20:36;100125.72;;;6.23;100.00
64827;BME280;51265;53.972;12.286;2024-02-04T12:23:04;100129.22;;;6.29;100.00
64827;BME280;51265;53.972;12.286;2024-02-04T12:25:31;100108.25;;;6.19;100.00
64827;BME280;51265;53.972;12.286;2024-02-04T12:28:08;100106.31;;;6.14;100.00
64827;BME280;51265;53.972;12.286;2024-02-04T12:30:34;100100.56;;;6.21;100.00
64827;BME280;51265;53.972;12.286;2024-02-04T12:33:03;100086.34;;;6.19;100.00
64827;BME280;51265;53.972;12.286;2024-02-04T12:35:33;100098.94;;;6.20;100.00
64827;BME280;51265;53.972;12.286;2024-02-04T12:37:59;100086.84;;;6.26;100.00
64827;BME280;51265;53.972;12.286;2024-02-04T12:40:29;100076.50;;;6.18;100.00
64827;BME280;51265;53.972;12.286;2024-02-04T12:43:00;100096.72;;;6.22;100.00
64827;BME280;51265;53.972;12.286;2024-02-04T12:45:30;100090.03;;;6.38;100.00
64827;BME280;51265;53.972;12.286;2024-02-04T12:47:58;100081.31;;;6.36;100.00
64827;BME280;51265;53.972;12.286;2024-02-04T12:50:25;100072.81;;;6.38;100.00